createdAt,value
2018-04-17T00:01:31.144Z,50.03
2018-04-17T00:03:58.727Z,50.00
2018-04-17T00:06:27.023Z,51.70
2018-04-17T00:08:54.663Z,50.47
2018-04-17T00:11:22.259Z,52.00
2018-04-17T00:13:49.813Z,49.97
2018-04-17T00:16:17.334Z,50.80
2018-04-17T00:18:44.883Z,51.63
2018-04-17T00:21:12.408Z,52.20
2018-04-17T00:23:39.954Z,51.53
2018-04-17T00:26:07.484Z,53.77
2018-04-17T00:28:35.037Z,51.50
2018-04-17T00:31:02.583Z,50.87
2018-04-17T00:33:31.108Z,52.47
2018-04-17T00:35:58.664Z,50.40
2018-04-17T00:38:26.236Z,53.07
2018-04-17T00:40:53.770Z,51.20
2018-04-17T00:43:21.435Z,52.97
2018-04-17T00:45:48.964Z,52.73
2018-04-17T00:48:16.531Z,54.00
2018-04-17T00:50:44.055Z,51.60
2018-04-17T00:53:23.467Z,52.47
2018-04-17T00:55:50.999Z,50.97
2018-04-17T00:58:18.573Z,54.20
2018-04-17T01:00:46.103Z,52.63
2018-04-17T01:03:13.664Z,51.90
2018-04-17T01:05:41.207Z,52.87
2018-04-17T01:08:08.755Z,52.17
2018-04-17T01:10:36.278Z,51.07
2018-04-17T01:13:03.847Z,50.83
2018-04-17T01:15:31.380Z,53.23
2018-04-17T01:17:58.903Z,49.67
2018-04-17T01:20:26.513Z,51.80
2018-04-17T01:22:54.837Z,51.50
2018-04-17T01:25:22.423Z,48.93
2018-04-17T01:27:49.947Z,53.30
2018-04-17T01:30:17.587Z,52.37
2018-04-17T01:32:45.103Z,53.90
2018-04-17T01:35:12.668Z,54.97
2018-04-17T01:37:40.209Z,54.37
2018-04-17T01:40:07.753Z,52.10
2018-04-17T01:42:35.276Z,55.37
2018-04-17T01:45:02.836Z,54.57
2018-04-17T01:47:30.585Z,54.50
2018-04-17T01:49:58.143Z,54.20
2018-04-17T01:52:25.680Z,53.07
2018-04-17T01:54:53.953Z,54.90
2018-04-17T01:57:21.499Z,56.20
2018-04-17T01:59:49.139Z,54.10
2018-04-17T02:02:16.664Z,57.37
2018-04-17T02:04:44.219Z,57.23
2018-04-17T02:07:11.744Z,59.40
2018-04-17T02:09:39.304Z,54.50
2018-04-17T02:12:06.865Z,52.90
2018-04-17T02:14:34.419Z,56.20
2018-04-17T02:17:01.948Z,57.50
2018-04-17T02:19:29.507Z,55.57
2018-04-17T02:21:57.036Z,55.57
2018-04-17T02:24:24.646Z,56.47
2018-04-17T02:26:52.198Z,56.53
2018-04-17T02:29:19.776Z,55.13
2018-04-17T02:31:47.356Z,55.77
2018-04-17T02:34:14.934Z,54.50
2018-04-17T02:36:42.493Z,55.67
2018-04-17T02:39:10.021Z,56.23
2018-04-17T02:41:37.610Z,53.87
2018-04-17T02:44:05.136Z,54.60
2018-04-17T02:46:32.816Z,55.60
2018-04-17T02:49:00.441Z,56.27
2018-04-17T02:51:28.055Z,53.60
2018-04-17T02:53:55.634Z,56.10
2018-04-17T02:56:23.196Z,54.33
2018-04-17T02:58:50.811Z,57.40
2018-04-17T03:01:18.373Z,54.40
2018-04-17T03:03:45.905Z,55.30
2018-04-17T03:06:13.467Z,59.40
2018-04-17T03:08:40.999Z,58.10
2018-04-17T03:11:08.560Z,56.20
2018-04-17T03:13:37.608Z,57.10
2018-04-17T03:16:05.171Z,56.70
2018-04-17T03:18:32.725Z,58.17
2018-04-17T03:21:00.308Z,55.33
2018-04-17T03:23:27.856Z,56.47
2018-04-17T03:25:55.452Z,58.20
2018-04-17T03:28:23.793Z,60.77
2018-04-17T03:30:51.361Z,60.53
2018-04-17T03:33:20.401Z,59.27
2018-04-17T03:35:48.065Z,60.00
2018-04-17T03:38:15.672Z,61.07
2018-04-17T03:40:43.232Z,59.27
2018-04-17T03:43:12.415Z,64.00
2018-04-17T03:45:39.984Z,61.17
2018-04-17T03:48:07.512Z,61.43
2018-04-17T03:50:35.039Z,58.70
2018-04-17T03:53:02.628Z,60.60
2018-04-17T03:55:30.151Z,59.97
2018-04-17T03:57:57.711Z,61.97
2018-04-17T04:00:25.294Z,58.33
2018-04-17T04:02:52.912Z,60.60
2018-04-17T04:05:20.443Z,59.73
2018-04-17T04:07:48.009Z,58.43
2018-04-17T04:10:15.689Z,58.47
2018-04-17T04:12:44.017Z,56.57
2018-04-17T04:15:11.547Z,58.00
2018-04-17T04:17:50.976Z,56.90
2018-04-17T04:20:30.351Z,57.03
2018-04-17T04:23:10.007Z,57.47
2018-04-17T04:28:44.249Z,58.37
2018-04-17T04:31:11.860Z,56.23
2018-04-17T04:33:39.384Z,58.77
2018-04-17T04:36:06.948Z,55.00
2018-04-17T04:38:34.501Z,54.90
2018-04-17T04:41:02.052Z,59.40
2018-04-17T04:43:29.899Z,55.30
2018-04-17T04:45:57.441Z,57.63
2018-04-17T04:48:25.054Z,54.33
2018-04-17T04:50:52.547Z,55.57
2018-04-17T04:53:21.615Z,54.97
2018-04-17T04:55:49.221Z,56.47
2018-04-17T04:58:16.816Z,57.40
2018-04-17T05:00:44.566Z,56.27
2018-04-17T05:03:12.128Z,56.87
2018-04-17T05:05:40.447Z,54.10
2018-04-17T05:08:07.996Z,53.77
2018-04-17T05:10:35.557Z,55.77
2018-04-17T05:13:03.115Z,55.10
2018-04-17T05:15:30.652Z,55.67
2018-04-17T05:17:58.224Z,55.77
2018-04-17T05:20:26.530Z,55.53
2018-04-17T05:22:55.097Z,56.20
2018-04-17T05:25:22.639Z,54.67
2018-04-17T05:27:50.223Z,54.77
2018-04-17T05:30:19.266Z,55.10
2018-04-17T05:32:46.860Z,54.90
2018-04-17T05:35:15.164Z,54.67
2018-04-17T05:37:42.738Z,52.97
2018-04-17T05:40:10.280Z,55.37
2018-04-17T05:42:37.949Z,56.50
2018-04-17T05:45:05.477Z,54.77
2018-04-17T05:47:33.047Z,57.13
2018-04-17T05:50:01.348Z,58.73
2018-04-17T05:52:28.904Z,61.77
2018-04-17T05:54:56.468Z,59.30
2018-04-17T05:57:24.098Z,61.90
2018-04-17T05:59:51.667Z,64.87
2018-04-17T06:02:19.231Z,68.07
2018-04-17T06:04:47.584Z,72.67
2018-04-17T06:07:15.231Z,64.00
2018-04-17T06:09:42.797Z,70.00
2018-04-17T06:12:11.131Z,66.03
2018-04-17T06:14:38.724Z,65.00
2018-04-17T06:17:06.253Z,69.00
2018-04-17T06:19:34.597Z,62.00
2018-04-17T06:22:02.956Z,63.60
2018-04-17T06:24:32.028Z,63.27
2018-04-17T06:26:59.583Z,64.50
2018-04-17T06:29:27.155Z,59.40
2018-04-17T06:31:54.683Z,58.80
2018-04-17T06:34:23.018Z,57.70
2018-04-17T06:36:50.642Z,55.07
2018-04-17T06:39:18.244Z,56.10
2018-04-17T06:41:45.838Z,55.87
2018-04-17T06:44:13.384Z,54.03
2018-04-17T06:46:40.914Z,52.57
2018-04-17T06:49:08.513Z,54.47
2018-04-17T06:51:36.814Z,52.90
2018-04-17T06:54:04.375Z,47.70
2018-04-17T06:56:32.002Z,52.73
2018-04-17T06:58:59.564Z,55.37
2018-04-17T07:01:27.147Z,54.27
2018-04-17T07:03:54.756Z,52.40
2018-04-17T07:06:22.292Z,53.57
2018-04-17T07:08:49.914Z,54.83
2018-04-17T07:11:17.469Z,53.20
2018-04-17T07:13:45.039Z,50.70
2018-04-17T07:16:12.590Z,48.83
2018-04-17T07:18:40.159Z,50.37
2018-04-17T07:21:08.479Z,48.87
2018-04-17T07:23:36.056Z,48.97
2018-04-17T07:26:03.608Z,45.87
2018-04-17T07:28:31.899Z,46.97
2018-04-17T07:30:59.464Z,41.40
2018-04-17T07:33:27.139Z,40.43
2018-04-17T07:35:54.690Z,33.37
2018-04-17T07:38:22.217Z,36.60
2018-04-17T07:40:49.772Z,36.40
2018-04-17T07:43:17.308Z,36.63
2018-04-17T07:45:44.881Z,30.10
2018-04-17T07:48:22.018Z,33.73
2018-04-17T07:50:49.583Z,29.57
2018-04-17T07:53:17.123Z,26.90
2018-04-17T07:55:44.702Z,26.83
2018-04-17T07:58:13.103Z,25.33
2018-04-17T08:00:40.655Z,26.30
2018-04-17T08:03:08.316Z,27.77
2018-04-17T08:05:35.887Z,26.23
2018-04-17T08:08:03.504Z,24.00
2018-04-17T08:10:31.068Z,23.03
2018-04-17T08:12:58.596Z,22.33
2018-04-17T08:15:26.155Z,20.73
2018-04-17T08:17:55.190Z,19.97
2018-04-17T08:20:22.761Z,19.27
2018-04-17T08:22:50.357Z,18.87
2018-04-17T08:25:19.097Z,19.10
2018-04-17T08:27:46.748Z,18.73
2018-04-17T08:30:14.489Z,17.67
2018-04-17T08:32:42.156Z,16.93
2018-04-17T08:35:09.775Z,15.30
2018-04-17T08:37:37.322Z,13.90
2018-04-17T08:40:04.958Z,14.80
2018-04-17T08:42:32.491Z,14.20
2018-04-17T08:45:00.047Z,12.47
2018-04-17T08:47:27.589Z,12.70
2018-04-17T08:49:55.240Z,9.60
2018-04-17T08:52:22.858Z,9.73
2018-04-17T08:54:50.435Z,7.70
2018-04-17T08:57:17.983Z,7.47
2018-04-17T08:59:45.578Z,6.37
2018-04-17T09:02:13.126Z,6.37
2018-04-17T09:04:40.660Z,6.17
2018-04-17T09:07:08.971Z,5.23
2018-04-17T09:09:36.526Z,6.50
2018-04-17T09:12:06.288Z,6.67
2018-04-17T09:14:33.826Z,5.80
2018-04-17T09:17:02.359Z,6.37
2018-04-17T09:19:29.899Z,7.10
2018-04-17T09:21:57.460Z,5.57
2018-04-17T09:24:25.785Z,6.30
2018-04-17T09:26:53.335Z,5.37
2018-04-17T09:29:20.912Z,6.93
2018-04-17T09:31:48.435Z,6.70
2018-04-17T09:34:17.453Z,6.23
2018-04-17T09:36:45.019Z,5.40
2018-04-17T09:39:12.586Z,5.90
2018-04-17T09:41:40.135Z,6.20
2018-04-17T09:44:07.651Z,6.60
2018-04-17T09:46:35.203Z,5.70
2018-04-17T09:49:02.871Z,5.10
2018-04-17T09:51:30.455Z,5.60
2018-04-17T09:53:58.744Z,5.10
2018-04-17T09:56:26.295Z,5.17
2018-04-17T09:58:53.811Z,4.93
2018-04-17T10:01:22.175Z,4.77
2018-04-17T10:03:49.693Z,4.70
2018-04-17T10:06:18.059Z,5.00
2018-04-17T10:08:45.642Z,6.30
2018-04-17T10:11:13.391Z,5.73
2018-04-17T10:13:40.910Z,5.77
2018-04-17T10:16:09.323Z,5.30
2018-04-17T10:18:36.853Z,6.73
2018-04-17T10:21:04.367Z,6.00
2018-04-17T10:23:31.918Z,5.37
2018-04-17T10:26:00.218Z,6.10
2018-04-17T10:28:27.759Z,5.40
2018-04-17T10:30:56.171Z,6.47
2018-04-17T10:33:24.515Z,6.10
2018-04-17T10:35:52.035Z,6.23
2018-04-17T10:38:19.591Z,6.00
2018-04-17T10:40:47.122Z,6.40
2018-04-17T10:43:14.707Z,6.60
2018-04-17T10:45:42.258Z,6.60
2018-04-17T10:48:10.586Z,7.43
2018-04-17T10:50:38.102Z,7.30
2018-04-17T10:53:05.661Z,6.80
2018-04-17T10:55:33.179Z,6.50
2018-04-17T10:58:00.733Z,5.70
2018-04-17T11:00:28.258Z,5.70
2018-04-17T11:02:55.840Z,6.50
2018-04-17T11:05:23.359Z,6.17
2018-04-17T11:07:50.923Z,6.23
2018-04-17T11:10:18.471Z,6.13
2018-04-17T11:12:46.031Z,6.30
2018-04-17T11:15:13.600Z,7.07
2018-04-17T11:17:41.230Z,6.60
2018-04-17T11:20:08.855Z,6.27
2018-04-17T11:22:36.412Z,6.70
2018-04-17T11:25:04.471Z,6.93
2018-04-17T11:27:32.090Z,7.50
2018-04-17T11:29:59.610Z,8.10
2018-04-17T11:32:27.278Z,8.90
2018-04-17T11:34:54.990Z,6.00
2018-04-17T11:37:22.579Z,6.57
2018-04-17T11:39:50.183Z,6.30
2018-04-17T11:42:17.716Z,7.03
2018-04-17T11:44:46.034Z,5.87
2018-04-17T11:47:13.574Z,6.10
2018-04-17T11:49:41.124Z,8.40
2018-04-17T11:52:08.643Z,5.93
2018-04-17T11:54:36.218Z,6.87
2018-04-17T11:57:03.737Z,5.60
2018-04-17T11:59:31.319Z,6.67
2018-04-17T12:01:58.844Z,6.10
2018-04-17T12:04:26.385Z,5.93
2018-04-17T12:06:54.038Z,6.30
2018-04-17T12:09:21.580Z,5.37
2018-04-17T12:11:49.099Z,5.80
2018-04-17T12:14:16.696Z,5.80
2018-04-17T12:16:44.215Z,6.20
2018-04-17T12:19:11.763Z,6.00
2018-04-17T12:21:39.279Z,5.57
2018-04-17T12:24:06.831Z,6.27
2018-04-17T12:26:34.357Z,6.30
2018-04-17T12:29:01.929Z,5.57
2018-04-17T12:31:29.472Z,6.07
2018-04-17T12:33:57.493Z,5.57
2018-04-17T12:36:25.035Z,6.50
2018-04-17T12:38:52.631Z,6.70
2018-04-17T12:41:21.143Z,6.80
2018-04-17T12:43:48.732Z,6.73
2018-04-17T12:46:16.246Z,6.23
2018-04-17T12:48:43.766Z,5.73
2018-04-17T12:51:12.079Z,6.33
2018-04-17T12:53:39.619Z,5.70
2018-04-17T12:56:07.304Z,6.30
2018-04-17T12:58:35.587Z,6.20
2018-04-17T13:01:03.894Z,6.40
2018-04-17T13:03:31.411Z,5.60
2018-04-17T13:05:58.959Z,5.17
2018-04-17T13:08:26.517Z,4.80
2018-04-17T13:10:54.064Z,5.17
2018-04-17T13:13:21.581Z,4.63
2018-04-17T13:15:49.912Z,4.67
2018-04-17T13:18:17.465Z,5.07
2018-04-17T13:20:45.313Z,4.13
2018-04-17T13:23:12.930Z,4.93
2018-04-17T13:25:40.476Z,4.57
2018-04-17T13:28:08.001Z,4.90
2018-04-17T13:30:35.607Z,4.63
2018-04-17T13:33:03.127Z,5.20
2018-04-17T13:35:30.670Z,5.90
2018-04-17T13:37:58.971Z,5.70
2018-04-17T13:40:26.528Z,4.87
2018-04-17T13:42:54.238Z,4.83
2018-04-17T13:45:21.849Z,4.80
2018-04-17T13:47:49.400Z,7.43
2018-04-17T13:50:16.932Z,4.60
2018-04-17T13:52:44.455Z,5.10
2018-04-17T13:55:11.998Z,4.60
2018-04-17T13:57:39.575Z,5.70
2018-04-17T14:00:07.138Z,4.97
2018-04-17T14:02:34.766Z,5.17
2018-04-17T14:05:02.307Z,5.97
2018-04-17T14:07:29.880Z,5.10
2018-04-17T14:09:57.399Z,4.90
2018-04-17T14:12:24.938Z,4.43
2018-04-17T14:14:52.467Z,4.30
2018-04-17T14:17:20.085Z,4.20
2018-04-17T14:19:47.574Z,4.67
2018-04-17T14:22:15.140Z,4.80
2018-04-17T14:24:42.687Z,5.03
2018-04-17T14:27:10.259Z,9.97
2018-04-17T14:29:37.806Z,6.47
2018-04-17T14:32:07.036Z,7.10
2018-04-17T14:34:34.554Z,5.37
2018-04-17T14:37:02.147Z,5.70
2018-04-17T14:39:29.687Z,5.70
2018-04-17T14:41:57.244Z,5.17
2018-04-17T14:44:24.974Z,4.60
2018-04-17T14:46:52.599Z,4.57
2018-04-17T14:49:20.204Z,4.00
2018-04-17T14:51:48.724Z,4.30
2018-04-17T14:54:16.470Z,4.57
2018-04-17T14:56:44.027Z,4.10
2018-04-17T14:59:11.545Z,4.90
2018-04-17T15:01:39.097Z,4.70
2018-04-17T15:04:07.563Z,3.90
2018-04-17T15:06:35.131Z,4.70
2018-04-17T15:09:03.459Z,4.87
2018-04-17T15:11:31.934Z,4.70
2018-04-17T15:13:59.558Z,4.70
2018-04-17T15:16:27.215Z,3.83
2018-04-17T15:18:55.100Z,4.60
2018-04-17T15:21:22.612Z,4.40
2018-04-17T15:23:50.159Z,4.17
2018-04-17T15:26:17.680Z,4.90
2018-04-17T15:28:46.155Z,4.90
2018-04-17T15:31:13.698Z,5.30
2018-04-17T15:33:41.276Z,5.67
2018-04-17T15:36:08.866Z,4.63
2018-04-17T15:38:37.298Z,5.93
2018-04-17T15:41:04.847Z,6.53
2018-04-17T15:43:32.479Z,6.90
2018-04-17T15:45:59.995Z,5.60
2018-04-17T15:48:27.602Z,5.80
2018-04-17T15:50:55.159Z,5.70
2018-04-17T15:53:23.561Z,5.10
2018-04-17T15:55:51.088Z,5.10
2018-04-17T15:58:18.680Z,6.70
2018-04-17T16:00:46.206Z,4.90
2018-04-17T16:03:13.752Z,8.07
2018-04-17T16:05:41.401Z,6.20
2018-04-17T16:08:08.948Z,8.37
2018-04-17T16:10:36.497Z,4.80
2018-04-17T16:13:04.055Z,6.00
2018-04-17T16:15:31.591Z,5.13
2018-04-17T16:17:59.153Z,4.43
2018-04-17T16:20:26.671Z,4.90
2018-04-17T16:22:54.216Z,4.30
2018-04-17T16:25:21.775Z,7.63
2018-04-17T16:27:49.334Z,4.67
2018-04-17T16:30:16.947Z,6.50
2018-04-17T16:32:44.551Z,7.13
2018-04-17T16:35:12.868Z,6.20
2018-04-17T16:37:40.422Z,4.77
2018-04-17T16:40:07.991Z,4.33
2018-04-17T16:42:36.299Z,5.03
2018-04-17T16:45:03.849Z,5.40
2018-04-17T16:47:31.470Z,4.50
2018-04-17T16:49:59.055Z,3.77
2018-04-17T16:52:26.576Z,4.73
2018-04-17T16:54:54.577Z,4.47
2018-04-17T16:57:22.394Z,5.28
2018-04-17T16:59:49.955Z,4.23
2018-04-17T17:02:17.478Z,5.03
2018-04-17T17:04:45.028Z,6.17
2018-04-17T17:07:12.551Z,5.73
2018-04-17T17:09:40.116Z,4.83
2018-04-17T17:12:07.654Z,4.60
2018-04-17T17:14:35.209Z,4.33
2018-04-17T17:17:02.746Z,4.80
2018-04-17T17:19:30.287Z,5.00
2018-04-17T17:21:57.843Z,5.13
2018-04-17T17:24:25.507Z,8.17
2018-04-17T17:26:54.591Z,8.63
2018-04-17T17:29:22.130Z,5.40
2018-04-17T17:31:49.655Z,7.60
2018-04-17T17:34:17.211Z,6.90
2018-04-17T17:36:44.738Z,6.23
2018-04-17T17:39:12.334Z,6.00
2018-04-17T17:41:40.609Z,5.20
2018-04-17T17:44:08.948Z,5.10
2018-04-17T17:46:36.463Z,6.73
2018-04-17T17:49:03.979Z,4.90
2018-04-17T17:51:31.561Z,5.40
2018-04-17T17:53:59.159Z,5.80
2018-04-17T17:56:26.677Z,6.67
2018-04-17T17:58:54.992Z,7.37
2018-04-17T18:01:22.517Z,5.33
2018-04-17T18:03:50.114Z,5.80
2018-04-17T18:06:17.711Z,5.70
2018-04-17T18:08:45.230Z,5.27
2018-04-17T18:11:13.752Z,5.73
2018-04-17T18:13:41.263Z,5.63
2018-04-17T18:16:08.812Z,6.37
2018-04-17T18:18:36.335Z,6.13
2018-04-17T18:21:03.916Z,5.50
2018-04-17T18:23:31.443Z,6.77
2018-04-17T18:25:59.004Z,13.30
2018-04-17T18:28:26.523Z,15.47
2018-04-17T18:30:54.089Z,20.63
2018-04-17T18:33:21.657Z,9.30
2018-04-17T18:35:50.041Z,8.60
2018-04-17T18:38:18.339Z,6.90
2018-04-17T18:40:45.907Z,7.27
2018-04-17T18:43:13.426Z,9.27
2018-04-17T18:45:40.986Z,9.97
2018-04-17T18:48:08.507Z,11.40
2018-04-17T18:50:36.062Z,7.33
2018-04-17T18:53:03.627Z,8.00
2018-04-17T18:55:31.282Z,12.00
2018-04-17T18:57:58.806Z,10.77
2018-04-17T19:00:26.372Z,8.47
2018-04-17T19:02:54.877Z,10.47
2018-04-17T19:05:23.203Z,21.50
2018-04-17T19:07:50.776Z,12.20
2018-04-17T19:10:18.487Z,12.90
2018-04-17T19:12:46.340Z,20.50
2018-04-17T19:15:14.003Z,15.80
2018-04-17T19:17:41.584Z,11.63
2018-04-17T19:20:09.904Z,14.43
2018-04-17T19:22:37.427Z,8.90
2018-04-17T19:25:04.979Z,10.13
2018-04-17T19:27:32.547Z,13.30
2018-04-17T19:30:00.076Z,9.17
2018-04-17T19:32:27.633Z,10.50
2018-04-17T19:34:55.262Z,10.73
2018-04-17T19:37:22.812Z,10.60
2018-04-17T19:39:50.673Z,10.33
2018-04-17T19:42:18.451Z,11.00
2018-04-17T19:44:46.407Z,7.73
2018-04-17T19:47:14.138Z,10.73
2018-04-17T19:49:41.962Z,8.55
2018-04-17T19:52:09.819Z,9.60
2018-04-17T19:54:37.350Z,11.00
2018-04-17T19:57:05.006Z,10.20
2018-04-17T19:59:32.539Z,11.43
2018-04-17T20:02:00.194Z,9.90
2018-04-17T20:04:27.741Z,10.60
2018-04-17T20:06:55.304Z,12.50
2018-04-17T20:09:24.396Z,11.30
2018-04-17T20:11:52.901Z,12.77
2018-04-17T20:14:20.564Z,11.60
2018-04-17T20:16:48.161Z,11.53
2018-04-17T20:19:15.702Z,10.33
2018-04-17T20:21:43.246Z,10.67
2018-04-17T20:24:11.556Z,9.47
2018-04-17T20:26:39.121Z,10.43
2018-04-17T20:29:06.665Z,10.27
2018-04-17T20:31:34.287Z,10.27
2018-04-17T20:34:01.860Z,11.33
2018-04-17T20:36:29.465Z,13.37
2018-04-17T20:38:57.047Z,10.70
2018-04-17T20:41:24.597Z,12.07
2018-04-17T20:43:52.174Z,11.00
2018-04-17T20:46:20.482Z,11.40
2018-04-17T20:48:48.099Z,14.17
2018-04-17T20:51:16.390Z,16.80
2018-04-17T20:53:43.964Z,16.20
2018-04-17T20:56:11.499Z,17.13
2018-04-17T20:58:39.086Z,18.70
2018-04-17T21:01:07.433Z,17.43
2018-04-17T21:03:34.967Z,18.33
2018-04-17T21:06:02.489Z,16.73
2018-04-17T21:08:30.107Z,15.50
2018-04-17T21:10:57.642Z,14.33
2018-04-17T21:13:25.194Z,16.30
2018-04-17T21:15:52.716Z,15.67
2018-04-17T21:18:21.028Z,13.37
2018-04-17T21:20:48.552Z,12.40
2018-04-17T21:23:16.549Z,13.30
2018-04-17T21:25:44.151Z,14.23
2018-04-17T21:28:11.703Z,15.70
2018-04-17T21:30:39.271Z,14.40
2018-04-17T21:33:06.827Z,14.23
2018-04-17T21:35:34.458Z,13.10
2018-04-17T21:38:02.028Z,13.20
2018-04-17T21:40:29.558Z,13.13
2018-04-17T21:42:57.102Z,12.60
2018-04-17T21:45:24.652Z,11.50
2018-04-17T21:47:52.384Z,11.77
2018-04-17T21:50:19.916Z,11.83
2018-04-17T21:52:47.454Z,12.23
2018-04-17T21:55:17.171Z,12.63
2018-04-17T21:57:45.075Z,15.00
2018-04-17T22:00:12.619Z,15.23
2018-04-17T22:02:40.948Z,14.57
2018-04-17T22:05:08.583Z,15.60
2018-04-17T22:07:36.142Z,15.40
2018-04-17T22:10:05.238Z,14.80
2018-04-17T22:12:33.578Z,14.83
2018-04-17T22:15:01.099Z,15.50
2018-04-17T22:19:59.510Z,15.33
2018-04-17T22:22:27.117Z,14.90
2018-04-17T22:24:54.674Z,15.00
2018-04-17T22:27:22.206Z,15.93
2018-04-17T22:29:49.920Z,14.63
2018-04-17T22:32:17.442Z,13.30
2018-04-17T22:34:45.864Z,14.13
2018-04-17T22:37:13.382Z,14.20
2018-04-17T22:39:40.934Z,13.23
2018-04-17T22:42:08.471Z,15.00
2018-04-17T22:44:36.146Z,14.50
2018-04-17T22:47:03.671Z,13.37
2018-04-17T22:49:31.235Z,13.53
2018-04-17T22:51:58.776Z,12.83
2018-04-17T22:54:26.396Z,13.10
2018-04-17T22:56:53.926Z,12.43
2018-04-17T22:59:21.534Z,12.73
2018-04-17T23:01:49.873Z,10.53
2018-04-17T23:04:17.423Z,11.03
2018-04-17T23:06:44.956Z,11.90
2018-04-17T23:09:12.639Z,11.93
2018-04-17T23:11:40.171Z,12.27
2018-04-17T23:14:07.748Z,11.33
2018-04-17T23:16:36.040Z,10.83
2018-04-17T23:19:03.609Z,11.70
2018-04-17T23:21:31.135Z,11.90
2018-04-17T23:23:58.695Z,12.40
2018-04-17T23:26:26.222Z,12.15
2018-04-17T23:28:53.767Z,10.63
2018-04-17T23:31:21.283Z,11.03
2018-04-17T23:33:49.599Z,11.13
2018-04-17T23:36:17.124Z,11.57
2018-04-17T23:38:44.718Z,11.23
2018-04-17T23:41:13.003Z,12.43
2018-04-17T23:43:41.361Z,12.87
2018-04-17T23:46:09.659Z,11.20
2018-04-17T23:48:37.218Z,11.40
2018-04-17T23:51:04.761Z,12.00
2018-04-17T23:53:32.316Z,11.20
2018-04-17T23:55:59.848Z,11.07
2018-04-17T23:58:27.393Z,12.07
